createdAt,value
2019-02-08T00:00:38.435Z,2.30
2019-02-08T00:03:07.867Z,2.43
2019-02-08T00:05:36.939Z,2.13
2019-02-08T00:08:05.998Z,2.70
2019-02-08T00:10:35.047Z,2.17
2019-02-08T00:13:04.109Z,2.30
2019-02-08T00:15:33.175Z,2.20
2019-02-08T00:18:02.238Z,2.20
2019-02-08T00:20:31.359Z,2.47
2019-02-08T00:23:00.382Z,2.43
2019-02-08T00:25:29.489Z,2.83
2019-02-08T00:27:58.893Z,2.90
2019-02-08T00:30:31.039Z,2.20
2019-02-08T00:33:00.090Z,2.80
2019-02-08T00:35:29.153Z,2.97
2019-02-08T00:37:58.467Z,1.77
2019-02-08T00:40:27.793Z,2.20
2019-02-08T00:42:57.938Z,2.10
2019-02-08T00:45:26.999Z,2.17
2019-02-08T00:47:56.059Z,2.20
2019-02-08T00:50:29.913Z,1.57
2019-02-08T00:52:58.974Z,2.13
2019-02-08T00:55:28.058Z,2.17
2019-02-08T00:57:57.503Z,2.30
2019-02-08T01:00:26.566Z,2.00
2019-02-08T01:02:56.159Z,2.27
2019-02-08T01:05:27.986Z,2.57
2019-02-08T01:07:57.319Z,1.80
2019-02-08T01:10:35.278Z,1.97
2019-02-08T01:13:04.711Z,1.80
2019-02-08T01:15:34.137Z,1.97
2019-02-08T01:18:03.207Z,2.00
2019-02-08T01:20:32.270Z,1.80
2019-02-08T01:23:01.325Z,2.30
2019-02-08T01:25:33.033Z,3.20
2019-02-08T01:28:02.093Z,2.13
2019-02-08T01:30:33.160Z,2.30
2019-02-08T01:33:02.225Z,2.10
2019-02-08T01:35:31.285Z,1.97
2019-02-08T01:38:01.252Z,2.67
2019-02-08T01:40:40.044Z,2.20
2019-02-08T01:43:09.274Z,2.33
2019-02-08T01:45:38.335Z,2.60
2019-02-08T01:48:08.328Z,2.70
2019-02-08T01:50:37.389Z,1.90
2019-02-08T01:53:07.041Z,2.50
2019-02-08T01:55:36.105Z,2.53
2019-02-08T01:58:05.166Z,2.77
2019-02-08T02:00:41.152Z,2.13
2019-02-08T02:03:10.524Z,2.23
2019-02-08T02:05:39.785Z,2.87
2019-02-08T02:08:08.823Z,3.90
2019-02-08T02:10:44.005Z,2.60
2019-02-08T02:13:13.070Z,2.83
2019-02-08T02:15:42.132Z,2.53
2019-02-08T02:18:11.705Z,2.30
2019-02-08T02:20:43.172Z,1.67
2019-02-08T02:23:15.237Z,1.93
2019-02-08T02:25:44.293Z,2.37
2019-02-08T02:28:13.355Z,2.87
2019-02-08T02:30:42.413Z,2.47
2019-02-08T02:33:13.483Z,2.57
2019-02-08T02:35:42.540Z,2.90
2019-02-08T02:38:11.607Z,2.07
2019-02-08T02:40:40.674Z,1.93
2019-02-08T02:43:09.726Z,2.20
2019-02-08T02:45:40.591Z,2.07
2019-02-08T02:48:12.366Z,2.20
2019-02-08T02:50:41.429Z,2.50
2019-02-08T02:53:10.662Z,2.67
2019-02-08T02:55:39.719Z,1.90
2019-02-08T02:58:08.789Z,2.37
2019-02-08T03:00:42.186Z,3.17
2019-02-08T03:03:11.954Z,2.47
2019-02-08T03:05:41.015Z,2.53
2019-02-08T03:08:12.183Z,2.53
2019-02-08T03:10:41.244Z,2.40
2019-02-08T03:13:10.310Z,2.90
2019-02-08T03:15:39.368Z,2.60
2019-02-08T03:18:08.424Z,2.50
2019-02-08T03:20:37.487Z,2.43
2019-02-08T03:23:06.539Z,2.43
2019-02-08T03:25:35.597Z,3.00
2019-02-08T03:28:04.825Z,2.80
2019-02-08T03:30:35.859Z,2.47
2019-02-08T03:33:05.159Z,2.70
2019-02-08T03:35:34.215Z,2.67
2019-02-08T03:38:03.308Z,3.20
2019-02-08T03:40:32.604Z,2.87
2019-02-08T03:43:02.017Z,3.33
2019-02-08T03:45:41.460Z,3.63
2019-02-08T03:48:11.026Z,3.87
2019-02-08T03:50:40.085Z,3.53
2019-02-08T03:53:09.851Z,3.50
2019-02-08T03:55:39.177Z,3.83
2019-02-08T03:58:08.712Z,3.90
2019-02-08T04:00:48.108Z,4.37
2019-02-08T04:03:17.170Z,4.63
2019-02-08T04:05:46.229Z,5.13
2019-02-08T04:08:15.290Z,4.33
2019-02-08T04:10:44.344Z,4.20
2019-02-08T04:13:13.411Z,5.30
2019-02-08T04:15:42.537Z,4.93
2019-02-08T04:18:11.597Z,5.17
2019-02-08T04:20:40.658Z,5.57
2019-02-08T04:23:09.718Z,5.17
2019-02-08T04:25:38.785Z,5.60
2019-02-08T04:28:07.845Z,7.60
2019-02-08T04:30:36.997Z,5.37
2019-02-08T04:33:06.235Z,6.33
2019-02-08T04:35:35.289Z,5.83
2019-02-08T04:38:04.352Z,5.23
2019-02-08T04:40:33.404Z,5.23
2019-02-08T04:43:02.467Z,5.30
2019-02-08T04:45:31.524Z,5.57
2019-02-08T04:48:00.588Z,4.90
2019-02-08T04:50:30.387Z,5.13
2019-02-08T04:52:59.455Z,5.97
2019-02-08T04:55:28.581Z,5.57
2019-02-08T04:57:57.645Z,6.00
2019-02-08T05:00:30.935Z,5.03
2019-02-08T05:02:59.991Z,5.33
2019-02-08T05:05:29.053Z,5.50
2019-02-08T05:07:58.109Z,6.20
2019-02-08T05:10:33.102Z,5.33
2019-02-08T05:13:02.159Z,5.37
2019-02-08T05:15:31.214Z,4.67
2019-02-08T05:18:00.295Z,6.03
2019-02-08T05:20:31.348Z,5.03
2019-02-08T05:23:00.416Z,5.87
2019-02-08T05:25:29.477Z,5.50
2019-02-08T05:27:58.539Z,5.43
2019-02-08T05:30:33.741Z,6.43
2019-02-08T05:33:02.792Z,5.50
2019-02-08T05:35:31.849Z,4.93
2019-02-08T05:38:00.911Z,4.77
2019-02-08T05:40:29.971Z,4.97
2019-02-08T05:42:59.028Z,4.90
2019-02-08T05:45:28.098Z,5.43
2019-02-08T05:47:57.163Z,5.63
2019-02-08T05:50:29.952Z,5.37
2019-02-08T05:52:59.017Z,5.13
2019-02-08T05:55:31.157Z,4.83
2019-02-08T05:58:00.299Z,5.40
2019-02-08T06:00:41.165Z,5.23
2019-02-08T06:03:10.242Z,4.73
2019-02-08T06:05:39.475Z,4.73
2019-02-08T06:08:08.874Z,5.03
2019-02-08T06:10:37.939Z,5.17
2019-02-08T06:13:08.507Z,4.90
2019-02-08T06:15:38.086Z,5.30
2019-02-08T06:18:08.857Z,5.30
2019-02-08T06:20:37.982Z,5.70
2019-02-08T06:23:07.419Z,4.70
2019-02-08T06:25:36.478Z,4.97
2019-02-08T06:28:05.984Z,4.57
2019-02-08T06:30:35.122Z,4.50
2019-02-08T06:33:04.743Z,5.57
2019-02-08T06:35:33.800Z,5.03
2019-02-08T06:38:02.868Z,5.40
2019-02-08T06:40:41.685Z,5.37
2019-02-08T06:43:10.745Z,5.73
2019-02-08T06:45:39.877Z,5.47
2019-02-08T06:48:11.046Z,5.60
2019-02-08T06:50:40.123Z,5.30
2019-02-08T06:53:09.185Z,5.50
2019-02-08T06:55:38.244Z,5.90
2019-02-08T06:58:10.156Z,6.67
2019-02-08T07:00:46.984Z,5.77
2019-02-08T07:03:17.760Z,6.53
2019-02-08T07:05:56.969Z,5.40
2019-02-08T07:08:27.671Z,6.10
2019-02-08T07:11:16.724Z,6.40
2019-02-08T07:13:53.520Z,5.63
2019-02-08T07:16:24.228Z,6.93
2019-02-08T07:18:54.924Z,6.50
2019-02-08T07:21:34.064Z,6.57
2019-02-08T07:24:15.766Z,8.77
2019-02-08T07:26:58.528Z,6.93
2019-02-08T07:29:47.322Z,7.80
2019-02-08T07:32:34.438Z,6.43
2019-02-08T07:35:24.754Z,7.23
2019-02-08T07:37:55.449Z,6.27
2019-02-08T07:40:38.865Z,8.07
2019-02-08T07:43:12.200Z,7.37
2019-02-08T07:45:49.440Z,5.83
2019-02-08T07:48:22.907Z,6.83
2019-02-08T07:50:53.614Z,6.90
2019-02-08T07:53:49.990Z,7.10
2019-02-08T07:56:20.697Z,6.93
2019-02-08T07:58:57.443Z,7.70
2019-02-08T08:01:28.153Z,6.37
2019-02-08T08:04:08.056Z,6.63
2019-02-08T08:06:38.762Z,7.37
2019-02-08T08:09:17.340Z,7.73
2019-02-08T08:11:48.114Z,7.57
2019-02-08T08:14:24.522Z,7.13
2019-02-08T08:17:13.294Z,8.90
2019-02-08T08:20:00.487Z,6.97
2019-02-08T08:22:34.053Z,7.07
2019-02-08T08:25:13.720Z,7.73
2019-02-08T08:27:47.481Z,7.57
2019-02-08T08:30:26.017Z,7.70
2019-02-08T08:33:10.230Z,8.33
2019-02-08T08:35:59.155Z,7.27
2019-02-08T08:39:00.342Z,7.87
2019-02-08T08:42:10.554Z,6.57
2019-02-08T08:44:59.370Z,6.80
2019-02-08T08:47:51.217Z,7.57
2019-02-08T08:50:56.825Z,7.10
2019-02-08T08:53:56.013Z,7.07
2019-02-08T08:56:51.057Z,6.70
2019-02-08T08:59:53.342Z,7.17
2019-02-08T09:02:45.235Z,6.03
2019-02-08T09:05:38.726Z,6.03
2019-02-08T09:08:36.697Z,7.07
2019-02-08T09:11:34.181Z,7.13
2019-02-08T09:14:22.919Z,6.60
2019-02-08T09:17:23.514Z,7.73
2019-02-08T09:20:28.222Z,6.13
2019-02-08T09:23:40.866Z,5.77
2019-02-08T09:26:58.535Z,5.70
2019-02-08T09:30:13.340Z,5.27
2019-02-08T09:33:15.739Z,5.83
2019-02-08T09:35:55.224Z,5.77
2019-02-08T09:38:48.537Z,5.23
2019-02-08T09:41:58.608Z,5.20
2019-02-08T09:45:03.472Z,5.13
2019-02-08T09:47:56.783Z,4.53
2019-02-08T09:50:57.885Z,5.80
2019-02-08T09:53:58.681Z,5.37
2019-02-08T09:57:05.849Z,5.57
2019-02-08T10:00:00.792Z,5.20
2019-02-08T10:03:12.591Z,4.90
2019-02-08T10:06:11.949Z,4.80
2019-02-08T10:09:14.469Z,4.57
2019-02-08T10:12:00.209Z,5.50
2019-02-08T10:15:03.297Z,4.90
2019-02-08T10:17:58.036Z,4.20
2019-02-08T10:21:01.953Z,4.20
2019-02-08T10:23:52.485Z,4.10
2019-02-08T10:26:57.860Z,4.10
2019-02-08T10:30:11.321Z,4.40
2019-02-08T10:33:10.917Z,4.43
2019-02-08T10:36:29.000Z,3.97
2019-02-08T10:39:33.143Z,4.63
2019-02-08T10:42:36.121Z,4.03
2019-02-08T10:45:47.339Z,3.70
2019-02-08T10:48:50.232Z,3.80
2019-02-08T10:51:55.819Z,4.37
2019-02-08T10:54:47.421Z,3.40
2019-02-08T10:57:57.405Z,3.30
2019-02-08T11:00:56.896Z,3.57
2019-02-08T11:03:36.135Z,3.77
2019-02-08T11:06:55.023Z,4.07
2019-02-08T11:09:58.056Z,3.77
2019-02-08T11:12:49.165Z,2.90
2019-02-08T11:15:46.844Z,3.33
2019-02-08T11:19:00.289Z,3.50
2019-02-08T11:21:29.351Z,2.80
2019-02-08T11:23:58.416Z,3.27
2019-02-08T11:26:27.477Z,3.30
2019-02-08T11:28:56.532Z,2.93
2019-02-08T11:31:25.592Z,3.37
2019-02-08T11:33:54.656Z,4.20
2019-02-08T11:36:23.733Z,3.93
2019-02-08T11:38:52.787Z,4.27
2019-02-08T11:41:21.848Z,3.33
2019-02-08T11:43:50.904Z,2.90
2019-02-08T11:46:19.965Z,4.07
2019-02-08T11:48:49.020Z,2.80
2019-02-08T11:51:18.080Z,3.10
2019-02-08T11:53:47.146Z,3.20
2019-02-08T11:56:16.205Z,3.00
2019-02-08T11:58:45.264Z,2.73
2019-02-08T12:01:14.325Z,2.80
2019-02-08T12:03:43.379Z,2.70
2019-02-08T12:06:12.442Z,3.33
2019-02-08T12:08:41.497Z,2.60
2019-02-08T12:11:10.558Z,3.03
2019-02-08T12:13:39.617Z,2.73
2019-02-08T12:16:08.676Z,2.60
2019-02-08T12:18:37.751Z,2.93
2019-02-08T12:21:06.811Z,2.67
2019-02-08T12:23:35.868Z,3.37
2019-02-08T12:26:04.931Z,2.70
2019-02-08T12:28:35.555Z,2.80
2019-02-08T12:31:04.616Z,2.27
2019-02-08T12:33:33.673Z,3.27
2019-02-08T12:36:02.738Z,3.10
2019-02-08T12:38:31.794Z,2.63
2019-02-08T12:41:09.787Z,2.80
2019-02-08T12:43:36.941Z,2.17
2019-02-08T12:46:06.000Z,2.40
2019-02-08T12:48:36.500Z,2.00
2019-02-08T12:51:05.600Z,2.70
2019-02-08T12:53:34.655Z,2.43
2019-02-08T12:56:03.719Z,3.00
2019-02-08T12:58:32.784Z,2.07
2019-02-08T13:01:01.845Z,2.10
2019-02-08T13:03:30.900Z,2.23
2019-02-08T13:05:59.980Z,2.00
2019-02-08T13:08:29.041Z,2.60
2019-02-08T13:10:58.099Z,1.60
2019-02-08T13:13:27.160Z,2.00
2019-02-08T13:15:56.225Z,1.83
2019-02-08T13:18:25.285Z,2.07
2019-02-08T13:20:54.343Z,1.80
2019-02-08T13:23:23.405Z,1.60
2019-02-08T13:25:52.466Z,1.40
2019-02-08T13:28:21.525Z,1.90
2019-02-08T13:30:50.586Z,2.10
2019-02-08T13:33:19.644Z,1.67
2019-02-08T13:35:48.706Z,1.87
2019-02-08T13:38:17.764Z,1.50
2019-02-08T13:40:46.825Z,1.50
2019-02-08T13:43:15.895Z,1.33
2019-02-08T13:45:44.956Z,2.20
2019-02-08T13:48:14.018Z,1.50
2019-02-08T13:50:43.153Z,1.87
2019-02-08T13:53:12.216Z,1.93
2019-02-08T13:55:41.282Z,1.60
2019-02-08T13:58:10.340Z,1.50
2019-02-08T14:00:40.818Z,1.67
2019-02-08T14:03:10.045Z,2.27
2019-02-08T14:05:39.120Z,2.20
2019-02-08T14:08:08.181Z,1.70
2019-02-08T14:10:37.247Z,1.70
2019-02-08T14:13:06.312Z,2.27
2019-02-08T14:15:35.644Z,1.43
2019-02-08T14:18:04.781Z,1.50
2019-02-08T14:20:33.844Z,2.07
2019-02-08T14:23:02.911Z,1.50
2019-02-08T14:25:31.972Z,1.60
2019-02-08T14:28:01.033Z,1.97
2019-02-08T14:30:36.223Z,2.40
2019-02-08T14:33:05.289Z,1.77
2019-02-08T14:35:34.559Z,1.40
2019-02-08T14:38:06.662Z,1.40
2019-02-08T14:40:35.726Z,1.67
2019-02-08T14:43:04.798Z,2.00
2019-02-08T14:45:33.882Z,1.53
2019-02-08T14:48:02.929Z,2.90
2019-02-08T14:50:32.003Z,2.00
2019-02-08T14:53:01.060Z,1.87
2019-02-08T14:55:30.202Z,1.70
2019-02-08T14:58:06.409Z,1.90
2019-02-08T15:00:35.474Z,1.33
2019-02-08T15:03:04.611Z,1.67
2019-02-08T15:05:33.672Z,1.80
2019-02-08T15:08:02.739Z,1.60
2019-02-08T15:10:41.904Z,1.50
2019-02-08T15:13:10.972Z,1.77
2019-02-08T15:15:43.221Z,1.77
2019-02-08T15:18:12.286Z,1.80
2019-02-08T15:20:41.361Z,1.70
2019-02-08T15:23:10.426Z,2.47
2019-02-08T15:25:39.497Z,2.13
2019-02-08T15:28:08.557Z,2.13
2019-02-08T15:30:38.067Z,1.20
2019-02-08T15:33:07.117Z,1.40
2019-02-08T15:35:36.182Z,1.30
2019-02-08T15:38:05.885Z,2.03
2019-02-08T15:40:48.604Z,1.20
2019-02-08T15:43:20.575Z,1.17
2019-02-08T15:45:54.208Z,1.13
2019-02-08T15:48:23.290Z,1.43
2019-02-08T15:50:52.352Z,1.50
2019-02-08T15:53:21.416Z,2.40
2019-02-08T15:55:58.087Z,1.57
2019-02-08T15:58:27.152Z,1.30
2019-02-08T16:00:56.219Z,1.03
2019-02-08T16:03:25.280Z,1.37
2019-02-08T16:05:54.344Z,1.60
2019-02-08T16:08:23.412Z,1.50
2019-02-08T16:10:52.473Z,1.50
2019-02-08T16:13:21.541Z,1.40
2019-02-08T16:15:50.606Z,1.50
2019-02-08T16:18:19.671Z,1.27
2019-02-08T16:20:48.735Z,1.33
2019-02-08T16:23:18.066Z,1.67
2019-02-08T16:25:47.129Z,1.40
2019-02-08T16:28:16.191Z,1.83
2019-02-08T16:30:45.263Z,1.00
2019-02-08T16:33:14.316Z,1.30
2019-02-08T16:35:43.381Z,1.80
2019-02-08T16:38:12.445Z,1.33
2019-02-08T16:40:41.522Z,1.57
2019-02-08T16:43:10.588Z,1.47
2019-02-08T16:45:40.738Z,1.30
2019-02-08T16:48:12.306Z,1.87
2019-02-08T16:50:42.277Z,1.30
2019-02-08T16:53:12.043Z,1.10
2019-02-08T16:55:41.101Z,1.47
2019-02-08T16:58:11.772Z,1.20
2019-02-08T17:00:42.644Z,1.10
2019-02-08T17:03:14.291Z,1.33
2019-02-08T17:05:43.510Z,1.67
2019-02-08T17:08:12.570Z,1.57
2019-02-08T17:10:41.628Z,1.63
2019-02-08T17:13:10.697Z,1.10
2019-02-08T17:15:39.761Z,1.73
2019-02-08T17:18:09.092Z,1.20
2019-02-08T17:20:49.331Z,1.43
2019-02-08T17:23:18.397Z,1.53
2019-02-08T17:25:47.458Z,1.37
2019-02-08T17:28:16.521Z,1.20
2019-02-08T17:30:45.583Z,1.57
2019-02-08T17:33:14.648Z,1.40
2019-02-08T17:35:43.711Z,1.50
2019-02-08T17:38:12.776Z,1.50
2019-02-08T17:40:48.472Z,1.20
2019-02-08T17:43:17.533Z,1.50
2019-02-08T17:45:46.598Z,2.07
2019-02-08T17:48:16.497Z,1.10
2019-02-08T17:50:45.560Z,1.37
2019-02-08T17:53:14.632Z,1.33
2019-02-08T17:55:43.695Z,1.30
2019-02-08T17:58:12.781Z,1.60
2019-02-08T18:00:55.216Z,1.47
2019-02-08T18:03:24.288Z,1.33
2019-02-08T18:05:53.364Z,1.27
2019-02-08T18:08:22.425Z,1.67
2019-02-08T18:10:51.487Z,1.60
2019-02-08T18:13:20.554Z,1.50
2019-02-08T18:15:49.610Z,1.10
2019-02-08T18:18:18.932Z,2.17
2019-02-08T18:20:58.624Z,1.63
2019-02-08T18:23:27.682Z,1.53
2019-02-08T18:25:56.741Z,1.60
2019-02-08T18:28:25.811Z,2.50
2019-02-08T18:30:54.905Z,1.23
2019-02-08T18:33:23.968Z,1.40
2019-02-08T18:35:56.104Z,1.23
2019-02-08T18:38:25.169Z,1.70
2019-02-08T18:40:54.225Z,1.57
2019-02-08T18:43:23.312Z,1.67
2019-02-08T18:45:52.373Z,1.67
2019-02-08T18:48:21.440Z,1.67
2019-02-08T18:50:53.610Z,1.27
2019-02-08T18:53:22.674Z,1.73
2019-02-08T18:55:51.729Z,1.10
2019-02-08T18:58:20.788Z,1.30
2019-02-08T19:00:52.853Z,1.70
2019-02-08T19:03:23.740Z,1.80
2019-02-08T19:05:52.786Z,1.90
2019-02-08T19:08:21.916Z,2.17
2019-02-08T19:10:50.973Z,1.33
2019-02-08T19:13:20.113Z,1.93
2019-02-08T19:15:49.159Z,1.77
2019-02-08T19:18:18.226Z,1.67
2019-02-08T19:20:47.317Z,1.80
2019-02-08T19:23:16.373Z,2.33
2019-02-08T19:25:46.363Z,1.60
2019-02-08T19:28:15.808Z,2.10
2019-02-08T19:30:45.604Z,1.53
2019-02-08T19:33:14.668Z,2.10
2019-02-08T19:35:43.712Z,1.87
2019-02-08T19:38:12.771Z,1.80
2019-02-08T19:40:47.516Z,1.67
2019-02-08T19:43:16.934Z,2.20
2019-02-08T19:45:45.934Z,1.70
2019-02-08T19:48:14.993Z,1.70
2019-02-08T19:50:47.163Z,1.70
2019-02-08T19:53:16.218Z,2.20
2019-02-08T19:55:45.277Z,1.33
2019-02-08T19:58:14.336Z,2.13
2019-02-08T20:00:44.928Z,2.20
2019-02-08T20:03:14.081Z,1.77
2019-02-08T20:05:43.133Z,1.67
2019-02-08T20:08:13.804Z,2.10
2019-02-08T20:10:50.166Z,2.07
2019-02-08T20:13:19.229Z,1.77
2019-02-08T20:15:48.282Z,2.37
2019-02-08T20:18:17.334Z,2.27
2019-02-08T20:20:46.388Z,2.33
2019-02-08T20:23:15.444Z,2.30
2019-02-08T20:25:46.274Z,2.03
2019-02-08T20:28:15.279Z,3.00
2019-02-08T20:30:44.333Z,2.43
2019-02-08T20:33:13.393Z,2.63
2019-02-08T20:35:42.442Z,2.20
2019-02-08T20:38:11.503Z,2.20
2019-02-08T20:40:47.780Z,2.20
2019-02-08T20:43:16.834Z,2.43
2019-02-08T20:45:45.887Z,2.33
2019-02-08T20:48:18.352Z,2.27
2019-02-08T20:50:47.403Z,2.50
2019-02-08T20:53:16.458Z,2.07
2019-02-08T20:55:45.514Z,2.30
2019-02-08T20:58:14.567Z,3.80
2019-02-08T21:00:48.094Z,1.97
2019-02-08T21:03:17.803Z,2.80
2019-02-08T21:05:47.202Z,2.80
2019-02-08T21:08:16.340Z,2.37
2019-02-08T21:10:45.396Z,1.90
2019-02-08T21:13:14.453Z,2.43
2019-02-08T21:15:43.512Z,2.97
2019-02-08T21:18:12.612Z,2.57
2019-02-08T21:20:42.238Z,2.30
2019-02-08T21:23:11.311Z,3.40
2019-02-08T21:25:42.071Z,2.00
2019-02-08T21:28:11.125Z,2.80
2019-02-08T21:30:40.197Z,2.47
2019-02-08T21:33:11.062Z,2.03
2019-02-08T21:35:40.112Z,2.70
2019-02-08T21:38:09.710Z,2.23
2019-02-08T21:40:38.762Z,2.40
2019-02-08T21:43:08.091Z,2.60
2019-02-08T21:45:42.887Z,2.10
2019-02-08T21:48:13.267Z,2.23
2019-02-08T21:50:42.302Z,2.40
2019-02-08T21:53:11.360Z,2.40
2019-02-08T21:55:40.411Z,2.20
2019-02-08T21:58:09.464Z,2.07
2019-02-08T22:00:43.671Z,2.50
2019-02-08T22:03:12.727Z,2.20
2019-02-08T22:05:52.292Z,2.23
2019-02-08T22:08:21.358Z,2.50
2019-02-08T22:10:50.412Z,1.97
2019-02-08T22:13:19.467Z,2.20
2019-02-08T22:15:48.520Z,2.17
2019-02-08T22:18:17.576Z,2.40
2019-02-08T22:20:46.627Z,2.10
2019-02-08T22:23:15.684Z,2.10
2019-02-08T22:25:44.736Z,2.00
2019-02-08T22:28:13.791Z,1.97
2019-02-08T22:30:42.843Z,1.87
2019-02-08T22:33:12.088Z,1.63
2019-02-08T22:35:41.493Z,2.00
2019-02-08T22:38:10.547Z,1.50
2019-02-08T22:40:39.599Z,2.20
2019-02-08T22:43:08.656Z,2.00
2019-02-08T22:45:42.812Z,2.03
2019-02-08T22:48:11.934Z,1.97
2019-02-08T22:50:40.988Z,2.07
2019-02-08T22:53:10.044Z,1.97
2019-02-08T22:55:39.094Z,2.57
2019-02-08T22:58:09.393Z,2.60
2019-02-08T23:00:51.638Z,1.83
2019-02-08T23:03:20.694Z,2.27
2019-02-08T23:05:49.751Z,1.60
2019-02-08T23:08:18.808Z,2.27
2019-02-08T23:10:47.860Z,2.23
2019-02-08T23:13:16.915Z,1.50
2019-02-08T23:15:45.967Z,1.80
2019-02-08T23:18:15.032Z,1.70
2019-02-08T23:20:44.079Z,2.40
2019-02-08T23:23:13.139Z,1.67
2019-02-08T23:25:42.192Z,1.60
2019-02-08T23:28:11.247Z,2.20
2019-02-08T23:30:40.300Z,2.17
2019-02-08T23:33:09.354Z,1.67
2019-02-08T23:35:43.101Z,1.80
2019-02-08T23:38:09.195Z,1.93
2019-02-08T23:40:38.252Z,1.70
2019-02-08T23:43:08.552Z,1.90
2019-02-08T23:45:37.638Z,1.90
2019-02-08T23:48:06.739Z,2.17
2019-02-08T23:50:35.792Z,1.60
2019-02-08T23:53:05.783Z,2.00
2019-02-08T23:55:34.835Z,1.60
2019-02-08T23:58:04.067Z,1.80
